Airfield :
LOGIN :

Register | Disclaimer

   EN    FR    IT 

 










Legend :    VFR   Marginal VFR   IFR   Intensive IFR   Very Intensive IFR
Visi :
Ceiling :
>= 8 km
>= 3000ft
5 to 8 km
1000 to 3000 ft
1500m to 5 km
500 to 1000 ft
800 to 1500m
200 to 500 ft
< 800m
< 200 ft
Symbols :   Thunderstorms  Fog  Heavy snow  Heavy precipitations  Wind > 20 kt
SIGMETs :     Misc.  Thunderstorms  Icing  Turbulence  Mountain Waves  Volcanic Ashes






- Airport Elevation : 124 ft
- IATA code : AVN


LFMV - Avignon Caumont

CURRENT METAR :
  • 041030Z AUTO 35010KT 310V030 9999 ///CB 31/15 Q1015 TEMPO -TSRA

EXPIRED METARs :
  • 041000Z AUTO 33010KT CAVOK 31/16 Q1016 NOSIG
  • 040930Z AUTO 34011KT 320V020 CAVOK 31/15 Q1016 NOSIG
  • 040900Z AUTO 35009KT 320V030 CAVOK 29/16 Q1016 NOSIG
  • 040830Z AUTO 36008KT 300V030 CAVOK 29/16 Q1016 NOSIG

TAF AMD TAF LFMV
Valid from the 04 at 10:00 until the 05 at 09:00 UTC


041012Z 0410/0509 36005KT CAVOK
PROB40
TEMPO 0411/0420 -TSRA SCT060CB
BECMG 0418/0420 35015KT
ATIS : +33 4 90 84 32 84



MET'MAP, your aeronautical weather chart ! - Copyright ORBIFLY December 2007 - Disclaimer

ORBIFLY MET'MAP TEAM :

Programming & Development : Alexandra Zaïnal
Original concept : Baudouin d'Aumeries
Technical & hardware support : Manuel Goepfert
Assistance : Marc-Olivier Méhu




SOURCES & CREDITS :

   NOAA